Ossipee, New Hampshire
Current Conditions -  °F | °C
As of 5:35 AM on Sunday 21 Dec 2014 (Local Time) from KLCI Reporting Station
Overcast Overcast  
Wind Chill: 18°   Ceiling: 2800
Heat Index: 25°   Visibility: 10mi
Dew Point: 19°   Wind: 6mph
Humidity: 80%   Direction: 60°ENE
Pressure: 30.28"   Gusts: NA
Location:  43.69°N, 71.12°W
Report Text: KLCI 211035Z AUTO 06005KT 10SM FEW010 BKN028 OVC034 M04/M07 A3028 RMK AO1
Loading
Personal Weather Stations






























Interactive Weather Map New forecast layout! Learn more

10-Day Weather Forecast

Advertisements
Track Severe Weather on mobile